• Join FlightAware (Why Join?)
  • Login
  • US Flag 
01:55AM EDT


 

Airport Tracker/Info


-or-


 

Live Flight TrackerFlight Track Log ✈ RPA3159 ✈ 17-May-2013 ✈ KBTV - KPHL

Flight Track Log - Related Links

Times and Time Zones

All times are in EDT time to prevent confusion due to time zone crossing. See the RPA3159 flight status page for this flight to view local times or setup timezone preferences in your user account.

Time Position Orientation Groundspeed Altitude Reporting Facility
EDT Latitude Longitude Course Direction KTS MPH feet Rate Location/Type
11:43AM 44.5183 -73.3308 198° South 285 328 6,900  Level Boston Center
11:44AM 44.0479 -73.3063 194° South  Level FlightAware Approximate
11:44AM 44.4431 -73.3531 192° South 307 353 10,000  Level Boston Center
11:45AM 43.9420 -73.3416 193° South  Level FlightAware Approximate
11:45AM 44.3533 -73.3778 191° South 321 369 10,000  Level Boston Center
11:46AM 43.8368 -73.3800 195° South  Level FlightAware Approximate
11:46AM 44.2594 -73.3967 188° South 340 391 13,100  Level Boston Center
11:47AM 43.7318 -73.4194 195° South  Level FlightAware Approximate
11:47AM 44.1656 -73.4039 183° South 340 391 16,100  Level Boston Center
11:48AM 43.6271 -73.4604 198° South  Level FlightAware Approximate
11:48AM 44.0922 -73.4692 213° Southwest 340 391 18,400  Level Boston Center
11:49AM 43.5237 -73.5075 198° South  Level FlightAware Approximate
11:49AM 44.0019 -73.5425 210° Southwest 361 415 19,400  Level Boston Center
11:51AM 43.9136 -73.6103 209° Southwest 373 429 21,400 1,140 Climbing Boston Center
11:52AM 43.7958 -73.7056 210° Southwest 373 429 22,000 300 Climbing Boston Center
11:53AM 43.7161 -73.7642 208° Southwest 373 429 22,000  Level Boston Center
11:54AM 43.6172 -73.8481 212° Southwest 378 435 22,000  Level Boston Center
11:55AM 43.5289 -73.9147 209° Southwest 378 435 22,000  Level Boston Center
11:56AM 43.4425 -73.9842 210° Southwest 378 435 22,000  Level Boston Center
11:57AM 43.3622 -74.0478 210° Southwest 378 435 22,000  Level Boston Center
11:58AM 43.2758 -74.1169 210° Southwest 378 435 22,000  Level Boston Center
11:59AM 43.1894 -74.1858 210° Southwest 373 429 22,000  Level Boston Center
12:00PM 43.1178 -74.2406 209° Southwest 368 423 22,000  Level Boston Center
12:01PM 43.0142 -74.3200 209° Southwest 368 423 22,000  Level Boston Center
12:02PM 42.9172 -74.3964 210° Southwest 368 423 22,000  Level Boston Center
12:03PM 42.8283 -74.4644 209° Southwest 368 423 22,000  Level Boston Center
12:04PM 42.7228 -74.5456 209° Southwest 368 423 22,000  Level Boston Center
12:05PM 42.6339 -74.6131 209° Southwest 368 423 22,000  Level Boston Center
12:06PM 42.5469 -74.6833 211° Southwest 368 423 22,000  Level Boston Center
12:07PM 42.4581 -74.7506 209° Southwest 368 423 22,000  Level Boston Center
12:08PM 42.3672 -74.8175 209° Southwest 368 423 22,000  Level Boston Center
12:09PM 42.2803 -74.8844 210° Southwest 368 423 22,000  Level Boston Center
12:10PM 42.1914 -74.9508 209° Southwest 368 423 22,000  Level Boston Center
12:11PM 42.1042 -75.0231 212° Southwest 368 423 22,000 -960 Level Boston Center
12:13PM 41.9189 -75.1722 211° Southwest 370 426 19,000 -960 Descending New York Center
12:14PM 41.8414 -75.2367 212° Southwest 370 426 19,000 -720 Level New York Center
12:15PM 41.7556 -75.3058 211° Southwest 370 426 17,700 -1,680 Descending New York Center
12:16PM 41.6675 -75.3778 211° Southwest 360 414 15,700 -1,800 Descending New York Center
12:17PM 41.5881 -75.4386 210° Southwest 345 397 14,100 -1,620 Descending New York Center
12:18PM 41.5169 -75.4975 212° Southwest 345 397 12,600 -1,080 Descending New York Center
12:19PM 41.4417 -75.5586 211° Southwest 332 382 12,000 -300 Descending New York Center
12:20PM 41.3556 -75.6244 210° Southwest 332 382 12,000  Level New York Center
12:21PM 41.2783 -75.6822 209° Southwest 327 376 12,000 -180 Level New York Center
12:22PM 41.1883 -75.6894 183° South 327 376 11,700 -900 Descending New York Center
12:23PM 41.0978 -75.6608 167° South 327 376 10,300 -900 Descending New York Center
12:24PM 41.0158 -75.6303 164° South 332 382 10,000 -180 Descending New York Center
12:25PM 40.9172 -75.5986 166° South 337 388 10,000  Level New York Center
12:26PM 40.8269 -75.5647 164° South 332 382 10,000  Level New York Center
12:27PM 40.7406 -75.5339 165° South 332 382 10,000  Level New York Center
12:28PM 40.6503 -75.5003 164° South 337 388 10,000  Level New York Center
12:29PM 40.5681 -75.4728 166° South 323 372 10,000  Level New York Center
12:30PM 40.4836 -75.4453 166° South 312 359 10,000 -360 Level New York Center
12:31PM 40.4119 -75.4103 160° South 312 359 9,300 -1,260 Descending New York Center
12:32PM 40.3347 -75.3644 156° South 312 359 7,600 -1,200 Descending New York Center
12:33PM 40.2492 -75.3125 155° Southeast 304 350 7,000 -660 Descending New York Center
12:34PM 40.1892 -75.2461 140° Southeast 304 350 6,300 -540 Descending New York Center
12:35PM 40.1214 -75.1628 137° Southeast 309 356 6,000 -240 Descending New York Center
12:36PM 40.0833 -75.1167 137° Southeast 275 316 6,000 -120 Level Philadelphia TRACON
12:37PM 40.0500 -75.0500 123° Southeast 225 259 5,900 -600 Descending Philadelphia TRACON
12:38PM 40.0167 -74.9833 123° Southeast 213 245 4,800 -1,500 Descending Philadelphia TRACON
12:39PM 39.9667 -74.9833 180° South 203 234 3,000 -1,200 Descending Philadelphia TRACON
12:40PM 39.9333 -75.0333 229° Southwest 186 214 2,500 -480 Descending Philadelphia TRACON
12:41PM 39.9000 -75.0833 229° Southwest 181 208 2,100 -600 Descending Philadelphia TRACON
12:42PM 39.8833 -75.1500 252° West 152 175 1,300 -840 Descending Philadelphia TRACON